NCAR-RAP Real-Time Weather Data

Output produced by METARs form (14 October 2019  22:55 UTC)
found at http://weather.rap.ucar.edu/surface/
 
KBNA 142153Z 22003KT 10SM SCT250 23/04 A3009 RMK AO2 SLP185 T02280039
KBNA 142053Z 00000KT 10SM SCT250 24/04 A3009 RMK AO2 SLP186 T02390044 55013
KBNA 141953Z VRB03KT 10SM SCT250 23/04 A3009 RMK AO2 SLP185 T02280039
KBNA 141853Z VRB04KT 10SM FEW070 SCT250 23/05 A3011 RMK AO2 SLP192 T02330050
KBNA 141753Z 08003KT 10SM SCT060 21/07 A3013 RMK AO2 SLP199 T02110072 10217 20072 58016
KBNA 141653Z 07003KT 10SM FEW060 20/06 A3016 RMK AO2 SLP211 T02000061
KBNA 141553Z 32003KT 10SM FEW040 19/07 A3016 RMK AO2 SLP212 T01890072
KBNA 141453Z 35003KT 10SM FEW038 16/08 A3018 RMK AO2 SLP216 T01610078 50012
KBNA 141353Z 00000KT 10SM CLR 12/08 A3018 RMK AO2 SLP217 T01220078
KBNA 141253Z 18005KT 10SM CLR 08/06 A3016 RMK AO2 SLP211 T00830061
KBNA 141153Z 19004KT 10SM CLR 07/05 A3014 RMK AO2 SLP205 T00720050 10094 20067 53015
KBNA 141053Z 18004KT 10SM CLR 07/04 A3012 RMK AO2 SLP199 T00670044
KBNA 140953Z 18004KT 10SM CLR 07/05 A3011 RMK AO2 SLP192 T00720050
KBNA 140853Z 19003KT 10SM CLR 08/04 A3009 RMK AO2 SLP187 T00780044 53004
KBNA 140753Z 19004KT 10SM CLR 07/04 A3008 RMK AO2 SLP184 T00720044
KBNA 140653Z 19003KT 10SM CLR 08/04 A3009 RMK AO2 SLP186 T00830044
KBNA 140553Z 00000KT 10SM CLR 09/04 A3008 RMK AO2 SLP184 T00890044 10161 20089 402220033 53007
KBNA 140453Z 18003KT 10SM CLR 10/04 A3007 RMK AO2 SLP181 T01000044
KBNA 140353Z 20003KT 10SM CLR 10/05 A3007 RMK AO2 SLP180 T01000050
KBNA 140253Z 20004KT 10SM CLR 11/05 A3006 RMK AO2 SLP178 T01110050 51015
KBNA 140153Z 18004KT 10SM CLR 12/05 A3005 RMK AO2 SLP174 T01170050
KBNA 140053Z 19004KT 10SM CLR 14/03 A3003 RMK AO2 SLP168 T01440033
KBNA 132353Z 20004KT 10SM FEW055 FEW070 16/02 A3001 RMK AO2 SLP163 T01610022 10222 20156 51003
KBNA 132253Z 21006KT 10SM FEW055 FEW070 19/01 A3001 RMK AO2 SLP163 T01890006
KBNA 132153Z 21005KT 10SM FEW055 FEW070 21/02 A3001 RMK AO2 SLP160 T02110022
KBNA 132053Z 22005KT 10SM FEW055 FEW070 22/01 A3000 RMK AO2 SLP158 T02170006 56020
KBNA 131953Z 18005KT 10SM FEW055 FEW070 21/01 A3001 RMK AO2 SLP161 T02110011
KBNA 131853Z 26005KT 10SM FEW045 FEW060 20/01 A3003 RMK AO2 SLP168 T02000006
KBNA 131753Z 30003KT 10SM FEW050 FEW080 18/03 A3006 RMK AO2 SLP179 T01830028 10189 20033 58012
KBNA 131653Z VRB05KT 10SM FEW055 17/03 A3008 RMK AO2 SLP185 T01720028
KBNA 131553Z 00000KT 10SM FEW020 FEW050 16/02 A3010 RMK AO2 SLP191 T01610017
KBNA 131453Z 17003KT 10SM FEW015 FEW040 12/06 A3010 RMK AO2 SLP192 T01220061 50004
KBNA 131353Z 00000KT 10SM FEW006 FEW040 08/06 A3011 RMK AO2 SLP197 T00830056
KBNA 131253Z 00000KT 10SM BCFG FEW003 FEW040 06/03 A3010 RMK AO2 SLP193 BCFG NE T00560033
KBNA 131153Z 20003KT 10SM BCFG FEW003 FEW040 03/02 A3009 RMK AO2 SLP190 BCFG NE T00330017 10061 20033 53012
KBNA 131053Z 00000KT 10SM BCFG FEW004 04/02 A3007 RMK AO2 SLP183 T00390022
KBNA 130953Z 00000KT 10SM FEW004 04/02 A3006 RMK AO2 SLP178 T00440022
KBNA 130853Z 00000KT 10SM FEW004 05/03 A3005 RMK AO2 SLP176 T00500028 58005
KBNA 130753Z 18003KT 10SM CLR 05/03 A3007 RMK AO2 SLP180 T00500028
KBNA 130653Z 00000KT 10SM CLR 06/03 A3007 RMK AO2 SLP181 T00560033
KBNA 130553Z 18003KT 10SM CLR 06/04 A3007 RMK AO2 SLP182 T00610039 10122 20061 401780061 58010
KBNA 130453Z 00000KT 10SM CLR 07/04 A3009 RMK AO2 SLP190 T00670039
KBNA 130353Z 19003KT 10SM CLR 07/04 A3010 RMK AO2 SLP192 T00720044
KBNA 130253Z 00000KT 10SM CLR 08/04 A3010 RMK AO2 SLP194 T00780039 58002
KBNA 130153Z 00000KT 10SM CLR 08/03 A3011 RMK AO2 SLP196 T00830033
KBNA 130053Z 19003KT 10SM CLR 10/03 A3010 RMK AO2 SLP194 T01000033
KBNA 122353Z 00000KT 10SM FEW250 12/01 A3011 RMK AO2 SLP194 T01170011 10178 20117 56012